Kezdőlap
METAR-TAF:

METAR-TAF

Repülőterek :

Dehradún, India

földrajzi szélesség: 30-11-23N, földrajzi hosszúság: 78-10-49E, magasság: 558 m

Jelenlegi meteorológiai megfigyelések

A jelentés 1 órával és 23 perccel ezelõtt készült, 08:00 UTC
Nyugat-délnyugati szél 4 kt
Hőmérséklet 32°C
Páratartalom 18%
Légköri nyomás 1009 hPa
Látótávolság: 6000 m
Kevés felhő 3000 lábon

METAR: VIDN 240800Z 24004KT 6000 FEW030 32/05 Q1009 NOSIG

Idő: 14:53 (09:23 UTC)

Előrejelzés

A jelentés 4 órával és 23 perccel ezelõtt készült, 05:00 UTC
Az előrejelzés 24-én 06 óra UTC és 24-én 15 óra UTC között érvényes
Délnyugati szél 3 kt
Látótávolság: 6000 m
24-én 10 óra UTC és 24-én 12 óra UTC között fokozatosan kialakuló
Nyugat-északnyugati szél 8 kt
Látótávolság: 5000 m
Száraz légköri homály,

TAF: VIDN 240500Z 2406/2415 23003KT 6000 NSC BECMG 2410/2412 29008KT 5000 HZ

Meteorológiai megfigyelések és előrejelzések több, mint 4000 repülőtéren (METAR és TAF jelentéseket).

A térképen piros és sárga pontok jelzik az elérhető meteorológiai állomásokat.

Mozgassa az egeret a pont fölött, hogy megjelenjen az állomás neve.

Azután kattintson az időjárási megfigyelések és előrejelzések megtekintéséhez.

A térkép megváltoztatása: kattintson a fekete keresztel jelölt zöld gombra ráközelítéshez, a vonallal jelölt zöld gombra távolításhoz, vagy a zöld nyilakra a szomszédos térképek eléréséhez.


METAR-TAF: